Time;durP1;ratioP1;P1;durP2;ratioP2;P2;SDS_P1;SDS_P2;PMS_P1;PMS_P2;Temp;Humidity;BMP_temperature;BMP_pressure;BME280_temperature;BME280_humidity;BME280_pressure;Samples;Min_cycle;Max_cycle;Signal;HPM_P1;HPM_P2
2022/04/07 00:00:43;;;;;;;;;;;;;;;4.34;69.65;99224.13;5031638;28;896;-56
2022/04/07 00:03:10;;;;;;;;;;;;;;;4.30;70.28;99229.56;5031927;28;846;-56
2022/04/07 00:05:37;;;;;;;;;;;;;;;4.24;70.93;99226.38;5031497;28;877;-56
2022/04/07 00:08:04;;;;;;;;;;;;;;;4.33;70.33;99219.81;5031532;28;1915;-56
2022/04/07 00:10:31;;;;;;;;;;;;;;;4.30;69.81;99216.66;5031512;28;866;-56
2022/04/07 00:12:57;;;;;;;;;;;;;;;4.28;70.74;99216.25;5031386;28;854;-55
2022/04/07 00:15:24;;;;;;;;;;;;;;;4.19;70.86;99207.56;5031494;28;877;-56
2022/04/07 00:17:51;;;;;;;;;;;;;;;4.16;70.93;99207.50;5031538;28;869;-57
2022/04/07 00:20:18;;;;;;;;;;;;;;;4.16;71.12;99200.13;5031372;28;896;-57
2022/04/07 00:22:45;;;;;;;;;;;;;;;4.16;71.37;99191.09;5031418;28;878;-56
2022/04/07 00:25:13;;;;;;;;;;;;;;;4.16;71.17;99180.16;5031452;28;928;-56
2022/04/07 00:27:40;;;;;;;;;;;;;;;4.21;70.95;99183.34;5049541;28;1969;-56
2022/04/07 00:30:09;;;;;;;;;;;;;;;4.23;70.33;99174.78;5053791;28;994;-56
2022/04/07 00:32:44;;;;;;;;;;;;;;;4.23;70.34;99177.53;5055257;28;930;-56
2022/04/07 00:35:11;;;;;;;;;;;;;;;4.14;70.58;99179.75;5055287;28;881;-57
2022/04/07 00:37:39;;;;;;;;;;;;;;;4.11;71.17;99173.09;5055323;28;871;-56
2022/04/07 00:40:07;;;;;;;;;;;;;;;4.14;70.58;99175.09;5055224;28;822;-57
2022/04/07 00:42:33;;;;;;;;;;;;;;;4.08;71.11;99171.88;5037368;28;890;-57
2022/04/07 00:45:00;;;;;;;;;;;;;;;4.09;71.07;99162.50;5055056;28;877;-55
2022/04/07 00:47:27;;;;;;;;;;;;;;;4.06;71.76;99159.75;5055027;28;1960;-56
2022/04/07 00:49:54;;;;;;;;;;;;;;;4.05;71.19;99158.97;5054926;28;905;-56
2022/04/07 00:52:21;;;;;;;;;;;;;;;3.94;71.30;99154.53;5054922;28;865;-56
2022/04/07 00:54:48;;;;;;;;;;;;;;;3.80;71.98;99149.69;5054937;28;854;-56
2022/04/07 00:57:15;;;;;;;;;;;;;;;3.69;72.08;99144.06;5055123;28;929;-56
2022/04/07 00:59:42;;;;;;;;;;;;;;;3.61;72.98;99145.19;5054734;28;1021;-56
2022/04/07 01:02:10;;;;;;;;;;;;;;;3.65;72.41;99143.28;5054637;28;843;-56
2022/04/07 01:04:35;;;;;;;;;;;;;;;3.76;72.61;99137.94;5054665;28;961;-56
2022/04/07 01:07:02;;;;;;;;;;;;;;;3.81;72.79;99138.38;5054602;28;1941;-57
2022/04/07 01:09:30;;;;;;;;;;;;;;;3.78;72.24;99130.16;5054705;28;823;-57
2022/04/07 01:11:57;;;;;;;;;;;;;;;3.66;73.22;99136.63;5054440;28;866;-56
2022/04/07 01:14:24;;;;;;;;;;;;;;;3.51;73.15;99135.66;5054594;28;898;-57
2022/04/07 01:16:51;;;;;;;;;;;;;;;3.37;73.69;99135.47;5054309;28;1870;-56
2022/04/07 01:19:18;;;;;;;;;;;;;;;3.36;74.30;99131.97;5054409;28;794;-57
2022/04/07 01:21:45;;;;;;;;;;;;;;;3.43;74.13;99137.50;5054703;28;846;-56
2022/04/07 01:24:13;;;;;;;;;;;;;;;3.54;74.63;99131.41;5054437;28;865;-56
2022/04/07 01:26:41;;;;;;;;;;;;;;;3.63;73.86;99121.00;5054309;28;1314;-56
2022/04/07 01:29:10;;;;;;;;;;;;;;;3.68;73.84;99126.13;5054240;28;959;-56
2022/04/07 01:31:36;;;;;;;;;;;;;;;3.74;73.50;99124.63;5054269;28;818;-56
2022/04/07 01:34:05;;;;;;;;;;;;;;;3.62;73.27;99128.38;5054106;28;910;-56
2022/04/07 01:36:34;;;;;;;;;;;;;;;3.55;73.74;99122.84;5054040;28;1902;-57
2022/04/07 01:39:01;;;;;;;;;;;;;;;3.66;73.17;99125.72;5054128;28;830;-56
2022/04/07 01:41:28;;;;;;;;;;;;;;;3.58;73.73;99122.09;5035421;28;822;-56
2022/04/07 01:43:56;;;;;;;;;;;;;;;3.41;73.50;99125.38;5054094;28;844;-57
2022/04/07 01:46:22;;;;;;;;;;;;;;;3.27;74.83;99120.53;5054048;28;894;-56
2022/04/07 01:48:50;;;;;;;;;;;;;;;3.27;76.05;99120.53;5053909;28;818;-56
2022/04/07 01:51:18;;;;;;;;;;;;;;;3.43;75.56;99114.88;5053850;28;946;-57
2022/04/07 01:53:46;;;;;;;;;;;;;;;3.63;74.15;99118.25;5053845;28;885;-57
2022/04/07 01:56:13;;;;;;;;;;;;;;;3.75;73.81;99114.47;5053798;28;802;-56
2022/04/07 01:58:40;;;;;;;;;;;;;;;3.66;74.12;99104.63;5053584;28;2136;-56
2022/04/07 02:01:07;;;;;;;;;;;;;;;3.55;74.51;99097.47;5053892;28;849;-56
2022/04/07 02:03:34;;;;;;;;;;;;;;;3.47;74.95;99091.13;5053940;28;849;-56
2022/04/07 02:06:30;;;;;;;;;;;;;;;3.48;74.77;99088.03;5053566;28;826;-56
2022/04/07 02:08:58;;;;;;;;;;;;;;;3.56;74.23;99082.63;5033107;28;1243;-56
2022/04/07 02:11:24;;;;;;;;;;;;;;;3.54;74.48;99093.16;5053385;28;1351;-57
2022/04/07 02:13:51;;;;;;;;;;;;;;;3.46;74.47;99081.38;5053346;28;954;-56
2022/04/07 02:16:20;;;;;;;;;;;;;;;3.31;74.42;99085.88;5053413;28;814;-56
2022/04/07 02:18:48;;;;;;;;;;;;;;;3.07;74.11;99087.09;5035446;28;2548;-56
2022/04/07 02:21:15;;;;;;;;;;;;;;;3.25;76.27;99081.88;5053187;28;977;-57
2022/04/07 02:23:42;;;;;;;;;;;;;;;3.85;73.50;99084.53;5053283;28;877;-57
2022/04/07 02:26:11;;;;;;;;;;;;;;;4.13;72.54;99072.31;5053080;28;1371;-57
2022/04/07 02:28:38;;;;;;;;;;;;;;;4.01;72.13;99067.09;5053049;28;878;-57
2022/04/07 02:31:05;;;;;;;;;;;;;;;3.72;72.70;99057.84;5053042;28;902;-56
2022/04/07 02:33:34;;;;;;;;;;;;;;;3.52;74.50;99065.41;5053041;28;862;-57
2022/04/07 02:36:01;;;;;;;;;;;;;;;3.44;75.39;99062.59;5053069;28;881;-56
2022/04/07 02:38:27;;;;;;;;;;;;;;;3.51;75.29;99052.91;5052698;28;1910;-56
2022/04/07 02:40:53;;;;;;;;;;;;;;;3.51;75.08;99059.16;5052951;28;830;-56
2022/04/07 02:43:21;;;;;;;;;;;;;;;3.53;74.40;99047.88;5052912;28;831;-56
2022/04/07 02:45:48;;;;;;;;;;;;;;;3.68;73.98;99049.59;5053165;28;878;-56
2022/04/07 02:48:14;;;;;;;;;;;;;;;3.78;73.43;99043.47;5052762;28;834;-56
2022/04/07 02:50:41;;;;;;;;;;;;;;;3.84;73.01;99044.69;5052768;28;898;-57
2022/04/07 02:53:08;;;;;;;;;;;;;;;3.88;72.90;99047.44;5052673;28;818;-57
2022/04/07 02:55:35;;;;;;;;;;;;;;;3.79;73.51;99050.47;5052617;28;841;-57
2022/04/07 02:58:01;;;;;;;;;;;;;;;3.51;73.70;99042.00;5052798;28;1885;-57
2022/04/07 03:00:28;;;;;;;;;;;;;;;3.18;73.98;99046.28;5052469;28;851;-57
2022/04/07 03:02:55;;;;;;;;;;;;;;;2.95;74.86;99038.97;5052483;28;931;-57
2022/04/07 03:05:21;;;;;;;;;;;;;;;2.83;75.06;99039.19;5052460;28;885;-56
2022/04/07 03:07:49;;;;;;;;;;;;;;;2.70;75.53;99035.91;5052459;28;905;-57
2022/04/07 03:10:15;;;;;;;;;;;;;;;2.74;75.67;99031.28;5052226;28;934;-56
2022/04/07 03:12:42;;;;;;;;;;;;;;;2.68;75.92;99029.25;5052396;28;889;-57
2022/04/07 03:15:09;;;;;;;;;;;;;;;2.51;76.60;99025.88;5052153;28;1093;-57
2022/04/07 03:17:36;;;;;;;;;;;;;;;2.45;76.99;99013.69;5052085;28;1952;-57
2022/04/07 03:20:02;;;;;;;;;;;;;;;2.57;78.15;99012.72;5052070;28;909;-57
2022/04/07 03:22:28;;;;;;;;;;;;;;;2.79;78.64;99000.16;5052085;28;944;-57
2022/04/07 03:24:55;;;;;;;;;;;;;;;2.98;78.65;98991.81;5052034;28;903;-57
2022/04/07 03:27:22;;;;;;;;;;;;;;;3.19;77.43;98985.03;5051940;28;1442;-57
2022/04/07 03:29:49;;;;;;;;;;;;;;;3.33;76.56;98978.94;5051951;28;838;-57
2022/04/07 03:32:16;;;;;;;;;;;;;;;3.41;76.74;98966.94;5051935;28;918;-57
2022/04/07 03:34:42;;;;;;;;;;;;;;;3.48;76.31;98959.63;5051818;28;894;-57
2022/04/07 03:37:10;;;;;;;;;;;;;;;3.48;76.41;98956.09;5051851;28;1985;-57
2022/04/07 03:39:37;;;;;;;;;;;;;;;3.49;76.11;98954.94;5051746;28;834;-57
2022/04/07 03:42:04;;;;;;;;;;;;;;;3.57;75.42;98956.56;5051910;28;842;-57
2022/04/07 03:44:30;;;;;;;;;;;;;;;3.59;75.08;98945.28;5051673;28;957;-57
2022/04/07 03:46:58;;;;;;;;;;;;;;;3.47;75.71;98938.91;5051734;28;931;-57
2022/04/07 03:49:24;;;;;;;;;;;;;;;3.28;75.79;98939.88;5051768;28;894;-56
2022/04/07 03:51:51;;;;;;;;;;;;;;;2.99;76.62;98927.09;5051647;28;922;-57
2022/04/07 03:54:18;;;;;;;;;;;;;;;2.80;76.92;98919.84;5051650;28;882;-57
2022/04/07 03:56:45;;;;;;;;;;;;;;;2.71;77.33;98905.69;5051439;28;1975;-57
2022/04/07 03:59:12;;;;;;;;;;;;;;;2.71;77.13;98905.69;5051492;28;895;-57
2022/04/07 04:01:39;;;;;;;;;;;;;;;2.68;77.07;98906.44;5051571;28;830;-56
2022/04/07 04:04:06;;;;;;;;;;;;;;;2.79;77.86;98904.63;5051073;28;936;-57
2022/04/07 04:06:34;;;;;;;;;;;;;;;2.91;77.04;98901.66;5051484;28;870;-57
2022/04/07 04:09:02;;;;;;;;;;;;;;;3.00;76.83;98904.88;5051291;28;874;-57
2022/04/07 04:11:29;;;;;;;;;;;;;;;3.11;77.12;98899.53;5051477;28;881;-57
2022/04/07 04:13:56;;;;;;;;;;;;;;;3.31;77.02;98889.22;5051390;28;901;-57
2022/04/07 04:16:23;;;;;;;;;;;;;;;3.58;76.74;98887.09;5051316;28;901;-57
2022/04/07 04:18:50;;;;;;;;;;;;;;;3.82;75.81;98893.94;5051690;28;846;-57
2022/04/07 04:21:16;;;;;;;;;;;;;;;4.14;75.39;98893.38;5051366;28;870;-57
2022/04/07 04:23:43;;;;;;;;;;;;;;;4.42;74.08;98908.38;5051438;28;893;-57
2022/04/07 04:26:10;;;;;;;;;;;;;;;4.56;73.44;98904.94;5051252;28;1213;-57
2022/04/07 04:28:37;;;;;;;;;;;;;;;4.62;73.36;98906.13;5051182;28;993;-57
2022/04/07 04:31:02;;;;;;;;;;;;;;;4.68;72.90;98894.44;5051270;28;845;-56
2022/04/07 04:33:29;;;;;;;;;;;;;;;4.85;71.83;98900.38;5051611;28;885;-57
2022/04/07 04:35:57;;;;;;;;;;;;;;;5.02;71.31;98902.38;5051256;28;870;-57
2022/04/07 04:38:24;;;;;;;;;;;;;;;5.21;70.72;98886.78;5051012;28;1906;-56
2022/04/07 04:40:51;;;;;;;;;;;;;;;5.56;69.79;98877.03;5033354;28;1165;-55
2022/04/07 04:43:16;;;;;;;;;;;;;;;5.96;69.07;98875.09;5051447;28;826;-56
2022/04/07 04:45:43;;;;;;;;;;;;;;;6.45;67.92;98865.94;5051138;28;946;-56
2022/04/07 04:48:10;;;;;;;;;;;;;;;7.23;66.54;98877.72;5051169;28;838;-57
2022/04/07 04:50:37;;;;;;;;;;;;;;;8.21;64.22;98878.50;5051097;28;862;-57
2022/04/07 04:53:03;;;;;;;;;;;;;;;9.01;61.37;98886.69;5050997;28;885;-57
2022/04/07 04:55:30;;;;;;;;;;;;;;;9.38;59.47;98899.53;5051234;28;892;-57
2022/04/07 04:57:57;;;;;;;;;;;;;;;9.49;59.99;98883.59;5051175;28;1969;-57
2022/04/07 05:00:23;;;;;;;;;;;;;;;9.75;59.10;98879.28;5051117;28;950;-57
2022/04/07 05:02:50;;;;;;;;;;;;;;;10.04;58.15;98864.22;5051289;28;854;-57
2022/04/07 05:05:17;;;;;;;;;;;;;;;10.38;56.67;98853.72;5051346;28;809;-56
2022/04/07 05:07:44;;;;;;;;;;;;;;;10.68;54.95;98856.72;5051351;28;806;-56
2022/04/07 05:10:10;;;;;;;;;;;;;;;10.66;54.16;98845.28;5051332;28;803;-56
2022/04/07 05:12:37;;;;;;;;;;;;;;;10.61;54.63;98838.28;5051531;28;778;-56
2022/04/07 05:15:06;;;;;;;;;;;;;;;10.69;54.65;98834.19;5050854;28;897;-56
2022/04/07 05:17:33;;;;;;;;;;;;;;;11.00;53.74;98842.97;5054093;28;1951;-56
2022/04/07 05:20:00;;;;;;;;;;;;;;;11.86;52.41;98837.38;5054596;28;881;-57
2022/04/07 05:22:27;;;;;;;;;;;;;;;12.41;49.37;98826.47;5054589;28;810;-57
2022/04/07 05:24:53;;;;;;;;;;;;;;;12.60;47.56;98816.44;5054565;28;937;-56
2022/04/07 05:27:20;;;;;;;;;;;;;;;12.67;47.25;98824.53;5054285;28;1242;-57
2022/04/07 05:29:47;;;;;;;;;;;;;;;12.73;46.83;98825.56;5054744;28;833;-57
2022/04/07 05:32:14;;;;;;;;;;;;;;;12.57;46.73;98826.41;5054572;28;794;-56
2022/04/07 05:34:41;;;;;;;;;;;;;;;12.55;47.43;98817.75;5054409;28;921;-56
2022/04/07 05:37:08;;;;;;;;;;;;;;;13.02;47.10;98817.16;5054261;28;2005;-56
2022/04/07 05:39:36;;;;;;;;;;;;;;;13.66;44.74;98813.59;5054415;28;823;-57
2022/04/07 05:42:03;;;;;;;;;;;;;;;13.91;43.92;98815.50;5054282;28;858;-57
2022/04/07 05:44:30;;;;;;;;;;;;;;;14.08;43.78;98805.81;5054307;28;893;-57
2022/04/07 05:46:56;;;;;;;;;;;;;;;14.10;43.56;98816.44;5054271;28;802;-56
2022/04/07 05:49:23;;;;;;;;;;;;;;;14.00;43.84;98818.41;5054219;28;978;-57
2022/04/07 05:51:53;;;;;;;;;;;;;;;14.09;44.47;98812.91;5054203;28;839;-56
2022/04/07 05:54:20;;;;;;;;;;;;;;;14.28;43.22;98819.38;5053721;28;867;-56
2022/04/07 05:56:47;;;;;;;;;;;;;;;14.29;44.83;98822.94;5053686;28;1885;-56
2022/04/07 05:59:14;;;;;;;;;;;;;;;14.52;44.60;98827.28;5053648;28;958;-56
2022/04/07 06:01:40;;;;;;;;;;;;;;;14.76;44.73;98821.28;5053751;28;839;-55
2022/04/07 06:04:07;;;;;;;;;;;;;;;14.87;43.63;98813.28;5053622;28;839;-56
2022/04/07 06:06:32;;;;;;;;;;;;;;;14.68;43.35;98818.00;5053568;28;846;-56
2022/04/07 06:08:59;;;;;;;;;;;;;;;14.16;44.79;98819.44;5053800;28;815;-57
2022/04/07 06:11:26;;;;;;;;;;;;;;;14.02;45.32;98817.94;5053748;28;850;-57
2022/04/07 06:13:53;;;;;;;;;;;;;;;14.59;44.44;98815.91;5053759;28;878;-56
2022/04/07 06:16:20;;;;;;;;;;;;;;;14.77;43.69;98806.91;5054192;28;767;-56
2022/04/07 06:18:47;;;;;;;;;;;;;;;14.63;44.39;98801.88;5053624;28;1935;-57
2022/04/07 06:21:14;;;;;;;;;;;;;;;14.84;44.75;98794.75;5053679;28;870;-56
2022/04/07 06:23:42;;;;;;;;;;;;;;;14.95;44.70;98795.09;5053424;28;882;-56
2022/04/07 06:26:09;;;;;;;;;;;;;;;15.41;44.62;98789.72;5053146;28;1398;-56
2022/04/07 06:28:36;;;;;;;;;;;;;;;15.87;43.21;98794.59;5052980;28;847;-57
2022/04/07 06:31:02;;;;;;;;;;;;;;;16.71;42.22;98782.16;5053366;28;843;-56
2022/04/07 06:33:29;;;;;;;;;;;;;;;17.66;40.71;98791.94;5053368;28;838;-57
2022/04/07 06:35:55;;;;;;;;;;;;;;;18.18;39.38;98775.00;5053274;28;802;-57
2022/04/07 06:38:22;;;;;;;;;;;;;;;18.16;39.55;98772.66;5053674;28;1910;-56
2022/04/07 06:40:48;;;;;;;;;;;;;;;17.53;38.49;98774.66;5053301;28;870;-56
2022/04/07 06:43:15;;;;;;;;;;;;;;;16.56;40.64;98772.88;5053786;28;783;-56
2022/04/07 06:45:42;;;;;;;;;;;;;;;15.90;42.73;98774.19;5052819;28;798;-56
2022/04/07 06:48:08;;;;;;;;;;;;;;;15.65;43.12;98764.84;5052774;28;835;-56
2022/04/07 06:50:34;;;;;;;;;;;;;;;15.28;43.37;98750.84;5052675;28;925;-56
2022/04/07 06:53:01;;;;;;;;;;;;;;;14.94;45.08;98756.63;5052677;28;882;-56
2022/04/07 06:55:29;;;;;;;;;;;;;;;14.80;45.65;98753.16;5052922;28;819;-56
2022/04/07 06:58:00;;;;;;;;;;;;;;;14.73;46.53;98747.88;5052458;28;1886;-56
2022/04/07 07:00:29;;;;;;;;;;;;;;;14.79;46.62;98732.13;5052756;28;945;-55
2022/04/07 07:02:57;;;;;;;;;;;;;;;14.90;45.24;98721.34;5052430;28;826;-56
2022/04/07 07:05:25;;;;;;;;;;;;;;;14.79;46.65;98721.00;5052586;28;807;-56
2022/04/07 07:07:52;;;;;;;;;;;;;;;14.94;47.45;98717.66;5052422;28;882;-56
2022/04/07 07:10:23;;;;;;;;;;;;;;;15.07;47.65;98718.31;5052292;28;911;-56
2022/04/07 07:12:50;;;;;;;;;;;;;;;14.89;46.52;98716.25;5052384;28;885;-55
2022/04/07 07:15:17;;;;;;;;;;;;;;;14.73;47.88;98713.72;5052353;28;830;-56
2022/04/07 07:17:44;;;;;;;;;;;;;;;14.58;48.46;98719.06;5052213;28;1945;-56
2022/04/07 07:20:11;;;;;;;;;;;;;;;14.32;48.59;98719.22;5052428;28;799;-56
2022/04/07 07:22:37;;;;;;;;;;;;;;;14.16;49.35;98716.63;5052243;28;814;-56
2022/04/07 07:25:05;;;;;;;;;;;;;;;13.91;50.17;98712.75;5052353;28;1034;-56
2022/04/07 07:27:38;;;;;;;;;;;;;;;13.69;51.89;98699.63;5051916;28;1242;-56
2022/04/07 07:30:05;;;;;;;;;;;;;;;13.78;51.50;98681.47;5052013;28;846;-55
2022/04/07 07:32:32;;;;;;;;;;;;;;;14.68;51.49;98668.59;5051868;28;937;-56
2022/04/07 07:34:59;;;;;;;;;;;;;;;15.52;48.39;98666.75;5051891;28;827;-56
2022/04/07 07:37:26;;;;;;;;;;;;;;;15.83;48.96;98676.97;5051782;28;1914;-56
2022/04/07 07:39:53;;;;;;;;;;;;;;;16.50;47.50;98661.94;5051171;28;830;-55
2022/04/07 07:42:20;;;;;;;;;;;;;;;17.97;43.57;98651.09;5051842;28;842;-55
2022/04/07 07:44:46;;;;;;;;;;;;;;;19.21;40.25;98646.63;5033832;28;1188;-55
2022/04/07 07:47:13;;;;;;;;;;;;;;;19.69;38.71;98634.94;5052009;28;819;-56
2022/04/07 07:49:40;;;;;;;;;;;;;;;18.90;38.93;98626.34;5051741;28;913;-56
2022/04/07 07:52:07;;;;;;;;;;;;;;;17.83;41.63;98635.06;5051746;28;831;-56
2022/04/07 07:54:34;;;;;;;;;;;;;;;18.22;41.36;98620.97;5051506;28;893;-56
2022/04/07 07:57:01;;;;;;;;;;;;;;;18.58;40.56;98619.75;5051553;28;2308;-56
2022/04/07 07:59:29;;;;;;;;;;;;;;;18.06;40.53;98616.66;5051409;28;1068;-56
2022/04/07 08:01:56;;;;;;;;;;;;;;;17.63;41.61;98611.31;5051589;28;822;-56
2022/04/07 08:04:23;;;;;;;;;;;;;;;17.80;40.93;98627.63;5051464;28;901;-56
2022/04/07 08:06:51;;;;;;;;;;;;;;;17.52;42.12;98613.91;5051352;28;866;-56
2022/04/07 08:09:17;;;;;;;;;;;;;;;16.56;44.41;98611.09;5051481;28;798;-56
2022/04/07 08:11:44;;;;;;;;;;;;;;;15.92;44.76;98610.88;5051613;28;850;-55
2022/04/07 08:14:11;;;;;;;;;;;;;;;15.52;45.87;98599.91;5051634;28;897;-55
2022/04/07 08:16:38;;;;;;;;;;;;;;;15.10;49.00;98603.31;5051303;28;1914;-55
2022/04/07 08:19:05;;;;;;;;;;;;;;;14.72;49.98;98590.56;5051379;28;843;-55
2022/04/07 08:21:32;;;;;;;;;;;;;;;14.78;51.26;98588.72;5051245;28;1108;-56
2022/04/07 08:23:59;;;;;;;;;;;;;;;15.16;49.75;98587.53;5051352;28;807;-56
2022/04/07 08:26:25;;;;;;;;;;;;;;;15.40;48.99;98565.41;5050947;28;1387;-55
2022/04/07 08:28:52;;;;;;;;;;;;;;;15.25;48.06;98565.25;5051334;28;882;-56
2022/04/07 08:31:19;;;;;;;;;;;;;;;15.07;48.36;98565.28;5051518;28;870;-55
2022/04/07 08:33:46;;;;;;;;;;;;;;;14.96;48.36;98549.03;5051011;28;894;-56
2022/04/07 08:36:13;;;;;;;;;;;;;;;14.94;49.21;98551.50;5051073;28;914;-56
2022/04/07 08:38:40;;;;;;;;;;;;;;;15.77;47.33;98540.31;5051153;28;1914;-56
2022/04/07 08:41:18;;;;;;;;;;;;;;;16.73;45.86;98531.34;5051134;28;819;-56
2022/04/07 08:43:44;;;;;;;;;;;;;;;17.39;42.73;98518.41;5051244;28;802;-56
2022/04/07 08:46:13;;;;;;;;;;;;;;;17.10;44.25;98512.31;5051189;28;894;-55
2022/04/07 08:48:43;;;;;;;;;;;;;;;17.00;44.27;98510.09;5051044;28;1031;-56
2022/04/07 08:51:11;;;;;;;;;;;;;;;16.81;44.89;98503.88;5053668;28;881;-56
2022/04/07 08:53:39;;;;;;;;;;;;;;;16.20;44.89;98510.44;5055151;28;865;-55
2022/04/07 08:56:06;;;;;;;;;;;;;;;15.88;44.91;98503.59;5054847;28;901;-55
2022/04/07 08:58:33;;;;;;;;;;;;;;;15.73;44.72;98497.94;5054844;28;1885;-56
2022/04/07 09:01:00;;;;;;;;;;;;;;;15.62;45.80;98486.47;5054785;28;935;-54
2022/04/07 09:03:26;;;;;;;;;;;;;;;15.59;45.22;98476.28;5054624;28;920;-56
2022/04/07 09:05:57;;;;;;;;;;;;;;;15.37;46.12;98468.16;5054966;28;814;-55
2022/04/07 09:08:52;;;;;;;;;;;;;;;15.00;45.13;98459.84;5054729;28;819;-56
2022/04/07 09:11:21;;;;;;;;;;;;;;;14.33;47.26;98447.59;5033241;28;1316;-56
2022/04/07 09:13:47;;;;;;;;;;;;;;;14.06;48.80;98443.53;5054961;28;861;-55
2022/04/07 09:16:15;;;;;;;;;;;;;;;14.46;49.59;98429.53;5036821;28;850;-56
2022/04/07 09:18:43;;;;;;;;;;;;;;;14.93;47.65;98437.91;5054672;28;1922;-56
2022/04/07 09:21:27;;;;;;;;;;;;;;;15.32;47.38;98436.91;5054626;28;893;-55
2022/04/07 09:23:54;;;;;;;;;;;;;;;15.61;45.40;98412.53;5054325;28;911;-55
2022/04/07 09:26:22;;;;;;;;;;;;;;;15.86;43.11;98397.44;5054295;28;1221;-55
2022/04/07 09:28:50;;;;;;;;;;;;;;;16.40;42.44;98398.31;5036720;28;882;-56
2022/04/07 09:31:17;;;;;;;;;;;;;;;17.20;40.60;98376.22;5054713;28;917;-56
2022/04/07 09:33:51;;;;;;;;;;;;;;;17.92;37.22;98369.44;5054606;28;1179;-56
2022/04/07 09:36:22;;;;;;;;;;;;;;;18.09;36.88;98362.06;5054123;28;842;-56
2022/04/07 09:38:50;;;;;;;;;;;;;;;17.98;36.72;98347.91;5036165;28;1910;-56
2022/04/07 09:41:19;;;;;;;;;;;;;;;17.61;37.22;98350.44;5054103;28;795;-56
2022/04/07 09:43:46;;;;;;;;;;;;;;;17.33;38.49;98343.16;5053923;28;898;-56
2022/04/07 09:46:17;;;;;;;;;;;;;;;16.96;38.69;98336.47;5053922;28;906;-56
2022/04/07 09:49:00;;;;;;;;;;;;;;;16.51;38.76;98337.19;5053882;28;930;-56
2022/04/07 09:51:28;;;;;;;;;;;;;;;16.12;39.23;98337.19;5053946;28;882;-55
2022/04/07 09:53:55;;;;;;;;;;;;;;;15.79;40.83;98350.41;5053879;28;795;-56
2022/04/07 09:56:25;;;;;;;;;;;;;;;15.43;41.17;98354.91;5053675;28;902;-56
2022/04/07 10:24:48;;;;;;;;;;;;;;;13.07;51.48;98289.56;5727577;22;1687;-53
2022/04/07 10:27:19;;;;;;;;;;;;;;;12.75;52.77;98285.25;5053357;28;911;-54
2022/04/07 10:30:04;;;;;;;;;;;;;;;12.33;54.36;98290.41;5053588;28;806;-55
2022/04/07 10:32:58;;;;;;;;;;;;;;;11.85;56.47;98279.38;5053166;28;813;-53
2022/04/07 10:35:33;;;;;;;;;;;;;;;11.47;59.37;98263.66;5050949;28;1473;-54
2022/04/07 10:38:00;;;;;;;;;;;;;;;10.92;64.90;98263.81;5053001;28;1938;-55
2022/04/07 10:40:49;;;;;;;;;;;;;;;10.74;67.91;98266.34;5053624;28;826;-55
2022/04/07 10:43:18;;;;;;;;;;;;;;;11.35;68.63;98234.81;5053401;28;849;-55
2022/04/07 10:45:46;;;;;;;;;;;;;;;12.81;65.42;98230.78;5052839;28;858;-55
2022/04/07 10:48:24;;;;;;;;;;;;;;;13.94;61.32;98223.00;5053177;28;881;-55
2022/04/07 10:50:54;;;;;;;;;;;;;;;15.11;57.91;98215.28;5052861;28;794;-54
2022/04/07 10:53:24;;;;;;;;;;;;;;;15.70;54.14;98207.16;5052830;28;809;-54
2022/04/07 10:55:58;;;;;;;;;;;;;;;15.99;52.56;98202.91;5053018;28;888;-55
2022/04/07 10:58:45;;;;;;;;;;;;;;;16.70;52.76;98194.75;5052644;28;1886;-55
2022/04/07 11:01:16;;;;;;;;;;;;;;;16.48;52.36;98209.88;5052522;28;999;-55
2022/04/07 11:04:02;;;;;;;;;;;;;;;16.50;53.77;98217.75;5052565;28;1152;-55
2022/04/07 11:06:29;;;;;;;;;;;;;;;16.16;51.11;98197.66;5011199;28;1303;-55
2022/04/07 11:09:14;;;;;;;;;;;;;;;15.31;53.84;98204.31;5052424;28;842;-54
2022/04/07 11:11:51;;;;;;;;;;;;;;;14.36;54.00;98199.31;5052302;28;889;-55
2022/04/07 11:14:18;;;;;;;;;;;;;;;13.52;56.77;98198.63;5051318;28;910;-55
2022/04/07 11:16:46;;;;;;;;;;;;;;;13.11;59.56;98197.13;5052335;28;1949;-56
2022/04/07 11:19:28;;;;;;;;;;;;;;;13.03;59.94;98205.72;5052289;28;814;-56
2022/04/07 11:22:06;;;;;;;;;;;;;;;13.39;58.91;98209.09;5052092;28;854;-55
2022/04/07 11:24:39;;;;;;;;;;;;;;;14.64;57.94;98214.72;5052204;28;1667;-55
2022/04/07 11:27:24;;;;;;;;;;;;;;;16.30;55.00;98198.91;5052176;28;873;-56
2022/04/07 11:30:07;;;;;;;;;;;;;;;17.34;52.48;98193.16;5052202;28;825;-55
2022/04/07 11:32:33;;;;;;;;;;;;;;;18.08;49.51;98178.78;5052007;28;814;-56
2022/04/07 11:35:13;;;;;;;;;;;;;;;18.27;50.42;98167.28;5051938;28;949;-56
2022/04/07 11:37:41;;;;;;;;;;;;;;;18.60;47.82;98166.78;5051951;28;1914;-54
2022/04/07 11:40:09;;;;;;;;;;;;;;;18.50;49.00;98162.66;5051868;28;941;-56
2022/04/07 11:42:36;;;;;;;;;;;;;;;18.76;48.81;98160.53;5051822;28;865;-56
2022/04/07 11:45:03;;;;;;;;;;;;;;;18.80;49.07;98160.34;5051775;28;858;-56
2022/04/07 11:47:33;;;;;;;;;;;;;;;18.88;47.00;98153.03;5051827;28;1137;-56
2022/04/07 11:50:00;;;;;;;;;;;;;;;18.48;46.86;98151.94;5051629;28;905;-56
2022/04/07 11:52:28;;;;;;;;;;;;;;;18.69;43.53;98137.84;5051569;28;902;-55
2022/04/07 11:54:56;;;;;;;;;;;;;;;18.69;42.72;98135.03;5051600;28;968;-56
2022/04/07 11:57:28;;;;;;;;;;;;;;;19.12;45.71;98129.47;5051591;28;1938;-56
2022/04/07 11:59:58;;;;;;;;;;;;;;;19.53;46.29;98124.28;5051954;28;849;-56
2022/04/07 12:02:25;;;;;;;;;;;;;;;19.15;45.01;98115.22;5051623;28;798;-56
2022/04/07 12:04:56;;;;;;;;;;;;;;;18.85;45.19;98114.06;5051480;28;929;-56
2022/04/07 12:07:23;;;;;;;;;;;;;;;18.72;44.15;98100.47;5051495;28;826;-56
2022/04/07 12:09:50;;;;;;;;;;;;;;;18.80;44.45;98092.38;5050313;28;949;-56
2022/04/07 12:12:19;;;;;;;;;;;;;;;19.00;42.15;98100.66;5051376;28;937;-56
2022/04/07 12:14:46;;;;;;;;;;;;;;;18.90;43.23;98102.88;5051579;28;932;-56
2022/04/07 12:17:13;;;;;;;;;;;;;;;18.78;41.35;98106.91;5051471;28;1910;-56
2022/04/07 12:19:45;;;;;;;;;;;;;;;18.65;42.11;98100.91;5051348;28;880;-56
2022/04/07 12:22:13;;;;;;;;;;;;;;;18.65;41.59;98093.31;5051288;28;822;-56
2022/04/07 12:24:39;;;;;;;;;;;;;;;18.54;40.99;98088.41;5051288;28;1062;-56
2022/04/07 12:27:08;;;;;;;;;;;;;;;18.95;42.34;98095.81;5055611;28;806;-56
2022/04/07 12:29:35;;;;;;;;;;;;;;;18.89;39.74;98090.16;5055510;28;864;-56
2022/04/07 12:32:06;;;;;;;;;;;;;;;18.28;41.99;98098.88;5055481;28;818;-56
2022/04/07 12:34:34;;;;;;;;;;;;;;;18.04;43.63;98110.38;5055803;28;861;-56
2022/04/07 12:37:01;;;;;;;;;;;;;;;17.42;43.00;98112.53;5055798;28;1910;-56
2022/04/07 12:39:34;;;;;;;;;;;;;;;16.66;44.03;98108.50;5055780;28;794;-56
2022/04/07 12:42:05;;;;;;;;;;;;;;;16.01;47.40;98111.25;5055141;28;888;-56
2022/04/07 12:44:33;;;;;;;;;;;;;;;15.74;49.29;98097.59;5054051;28;909;-56
2022/04/07 12:47:04;;;;;;;;;;;;;;;15.42;48.87;98075.72;5055022;28;897;-56
2022/04/07 12:49:32;;;;;;;;;;;;;;;15.08;51.52;98071.53;5055108;28;822;-55
2022/04/07 12:52:02;;;;;;;;;;;;;;;14.80;51.60;98068.19;5053693;28;848;-55
2022/04/07 12:54:29;;;;;;;;;;;;;;;14.39;52.91;98057.41;5055357;28;853;-55
2022/04/07 12:57:15;;;;;;;;;;;;;;;14.15;54.44;98054.59;5054857;28;1882;-55
2022/04/07 12:59:53;;;;;;;;;;;;;;;14.19;56.22;98088.53;5054816;28;912;-55
2022/04/07 13:02:21;;;;;;;;;;;;;;;14.36;55.81;98100.03;5054863;28;870;-55
2022/04/07 13:04:49;;;;;;;;;;;;;;;14.49;56.28;98070.03;5054967;28;814;-55
2022/04/07 13:07:17;;;;;;;;;;;;;;;14.89;55.36;98060.56;5054839;28;889;-56
2022/04/07 13:09:44;;;;;;;;;;;;;;;15.27;54.68;98058.25;5054739;28;878;-56
2022/04/07 13:12:14;;;;;;;;;;;;;;;15.32;54.43;98074.28;5054715;28;865;-56
2022/04/07 13:14:44;;;;;;;;;;;;;;;15.37;54.79;98070.84;5054646;28;1210;-56
2022/04/07 13:17:11;;;;;;;;;;;;;;;15.46;55.26;98070.75;5053198;28;1951;-56
2022/04/07 13:19:38;;;;;;;;;;;;;;;15.74;55.67;98064.19;5054671;28;1012;-56
2022/04/07 13:22:05;;;;;;;;;;;;;;;15.73;54.50;98066.22;5054533;28;847;-56
2022/04/07 13:24:32;;;;;;;;;;;;;;;15.66;56.46;98064.56;5054297;28;1333;-56
2022/04/07 13:26:59;;;;;;;;;;;;;;;15.72;55.82;98064.66;5054479;28;866;-56
2022/04/07 13:29:27;;;;;;;;;;;;;;;15.71;55.91;98068.69;5054356;28;862;-56
2022/04/07 13:31:54;;;;;;;;;;;;;;;15.80;55.70;98074.16;5054255;28;918;-55
2022/04/07 13:34:20;;;;;;;;;;;;;;;15.70;56.75;98087.41;5054291;28;853;-56
2022/04/07 13:36:47;;;;;;;;;;;;;;;15.45;55.33;98094.28;5051734;28;1909;-55
2022/04/07 13:39:15;;;;;;;;;;;;;;;15.31;57.43;98097.78;5054278;28;818;-56
2022/04/07 13:41:43;;;;;;;;;;;;;;;15.01;56.07;98094.16;5054045;28;839;-55